sensor_id;sensor_type;location;lat;lon;timestamp;P1;durP1;ratioP1;P2;durP2;ratioP2
1507;SDS011;745;48.586;10.032;2023-05-07T00:01:49;2.93;;;2.60;;
1507;SDS011;745;48.586;10.032;2023-05-07T00:06:19;3.30;;;3.00;;
1507;SDS011;745;48.586;10.032;2023-05-07T00:10:49;3.07;;;2.77;;
1507;SDS011;745;48.586;10.032;2023-05-07T00:15:20;3.50;;;3.13;;
1507;SDS011;745;48.586;10.032;2023-05-07T00:19:50;3.47;;;3.17;;
1507;SDS011;745;48.586;10.032;2023-05-07T00:24:21;3.30;;;3.00;;
1507;SDS011;745;48.586;10.032;2023-05-07T00:28:51;3.20;;;2.90;;
1507;SDS011;745;48.586;10.032;2023-05-07T00:33:22;3.00;;;2.70;;
1507;SDS011;745;48.586;10.032;2023-05-07T00:37:52;3.07;;;2.87;;
1507;SDS011;745;48.586;10.032;2023-05-07T00:42:22;3.50;;;3.20;;
1507;SDS011;745;48.586;10.032;2023-05-07T00:46:54;2.50;;;2.30;;
1507;SDS011;745;48.586;10.032;2023-05-07T00:51:25;4.90;;;2.70;;
1507;SDS011;745;48.586;10.032;2023-05-07T00:55:57;3.37;;;2.50;;
1507;SDS011;745;48.586;10.032;2023-05-07T01:00:27;5.97;;;3.23;;
1507;SDS011;745;48.586;10.032;2023-05-07T01:04:58;4.00;;;3.20;;
1507;SDS011;745;48.586;10.032;2023-05-07T01:09:30;3.00;;;2.73;;
1507;SDS011;745;48.586;10.032;2023-05-07T01:14:00;3.03;;;2.83;;
1507;SDS011;745;48.586;10.032;2023-05-07T01:18:32;5.07;;;2.90;;
1507;SDS011;745;48.586;10.032;2023-05-07T01:23:02;3.10;;;2.80;;
1507;SDS011;745;48.586;10.032;2023-05-07T01:27:33;2.70;;;2.50;;
1507;SDS011;745;48.586;10.032;2023-05-07T01:32:05;3.83;;;3.40;;
1507;SDS011;745;48.586;10.032;2023-05-07T01:36:36;5.20;;;4.13;;
1507;SDS011;745;48.586;10.032;2023-05-07T01:41:07;3.83;;;3.53;;
1507;SDS011;745;48.586;10.032;2023-05-07T01:45:37;4.13;;;3.67;;
1507;SDS011;745;48.586;10.032;2023-05-07T01:50:08;5.00;;;3.77;;
1507;SDS011;745;48.586;10.032;2023-05-07T01:54:40;4.50;;;4.10;;
1507;SDS011;745;48.586;10.032;2023-05-07T01:59:10;3.70;;;3.37;;
1507;SDS011;745;48.586;10.032;2023-05-07T02:03:41;6.23;;;4.13;;
1507;SDS011;745;48.586;10.032;2023-05-07T02:08:11;4.10;;;3.67;;
1507;SDS011;745;48.586;10.032;2023-05-07T02:12:42;5.10;;;3.70;;
1507;SDS011;745;48.586;10.032;2023-05-07T02:17:13;3.97;;;3.60;;
1507;SDS011;745;48.586;10.032;2023-05-07T02:21:43;5.77;;;4.87;;
1507;SDS011;745;48.586;10.032;2023-05-07T02:26:14;3.90;;;3.50;;
1507;SDS011;745;48.586;10.032;2023-05-07T02:30:44;6.30;;;4.07;;
1507;SDS011;745;48.586;10.032;2023-05-07T02:35:15;4.43;;;3.80;;
1507;SDS011;745;48.586;10.032;2023-05-07T02:39:45;4.83;;;4.40;;
1507;SDS011;745;48.586;10.032;2023-05-07T02:44:16;6.60;;;4.20;;
1507;SDS011;745;48.586;10.032;2023-05-07T02:48:46;4.30;;;3.90;;
1507;SDS011;745;48.586;10.032;2023-05-07T02:53:16;5.23;;;4.10;;
1507;SDS011;745;48.586;10.032;2023-05-07T02:57:47;7.13;;;4.07;;
1507;SDS011;745;48.586;10.032;2023-05-07T03:02:17;4.73;;;3.90;;
1507;SDS011;745;48.586;10.032;2023-05-07T03:06:48;5.53;;;5.00;;
1507;SDS011;745;48.586;10.032;2023-05-07T03:11:18;5.10;;;4.60;;
1507;SDS011;745;48.586;10.032;2023-05-07T03:15:48;6.83;;;4.37;;
1507;SDS011;745;48.586;10.032;2023-05-07T03:20:19;5.77;;;5.20;;
1507;SDS011;745;48.586;10.032;2023-05-07T03:24:50;4.13;;;3.73;;
1507;SDS011;745;48.586;10.032;2023-05-07T03:29:21;4.40;;;3.80;;
1507;SDS011;745;48.586;10.032;2023-05-07T03:33:52;4.70;;;3.87;;
1507;SDS011;745;48.586;10.032;2023-05-07T03:38:24;4.93;;;4.13;;
1507;SDS011;745;48.586;10.032;2023-05-07T03:42:54;3.83;;;3.43;;
1507;SDS011;745;48.586;10.032;2023-05-07T03:47:24;4.80;;;4.37;;
1507;SDS011;745;48.586;10.032;2023-05-07T03:51:55;4.63;;;3.80;;
1507;SDS011;745;48.586;10.032;2023-05-07T03:56:25;4.23;;;3.83;;
1507;SDS011;745;48.586;10.032;2023-05-07T04:00:59;4.83;;;3.80;;
1507;SDS011;745;48.586;10.032;2023-05-07T04:05:29;4.43;;;3.50;;
1507;SDS011;745;48.586;10.032;2023-05-07T04:10:00;7.47;;;3.30;;
1507;SDS011;745;48.586;10.032;2023-05-07T04:14:30;4.10;;;3.80;;
1507;SDS011;745;48.586;10.032;2023-05-07T04:19:02;4.00;;;3.63;;
1507;SDS011;745;48.586;10.032;2023-05-07T04:23:32;5.03;;;4.53;;
1507;SDS011;745;48.586;10.032;2023-05-07T04:28:02;4.47;;;4.07;;
1507;SDS011;745;48.586;10.032;2023-05-07T04:32:33;4.87;;;3.50;;
1507;SDS011;745;48.586;10.032;2023-05-07T04:37:03;4.20;;;3.90;;
1507;SDS011;745;48.586;10.032;2023-05-07T04:41:38;5.07;;;4.57;;
1507;SDS011;745;48.586;10.032;2023-05-07T04:46:08;5.33;;;4.70;;
1507;SDS011;745;48.586;10.032;2023-05-07T04:50:38;4.63;;;4.07;;
1507;SDS011;745;48.586;10.032;2023-05-07T04:55:10;4.90;;;4.50;;
1507;SDS011;745;48.586;10.032;2023-05-07T04:59:40;4.67;;;3.97;;
1507;SDS011;745;48.586;10.032;2023-05-07T05:04:11;4.30;;;3.90;;
1507;SDS011;745;48.586;10.032;2023-05-07T05:08:41;4.03;;;3.63;;
1507;SDS011;745;48.586;10.032;2023-05-07T05:13:13;4.57;;;4.17;;
1507;SDS011;745;48.586;10.032;2023-05-07T05:17:44;4.20;;;3.90;;
1507;SDS011;745;48.586;10.032;2023-05-07T05:22:15;4.63;;;4.23;;
1507;SDS011;745;48.586;10.032;2023-05-07T05:26:45;4.03;;;3.63;;
1507;SDS011;745;48.586;10.032;2023-05-07T05:31:16;5.43;;;4.50;;
1507;SDS011;745;48.586;10.032;2023-05-07T05:35:46;5.90;;;5.40;;
1507;SDS011;745;48.586;10.032;2023-05-07T05:40:17;7.60;;;4.37;;
1507;SDS011;745;48.586;10.032;2023-05-07T05:44:47;5.70;;;4.50;;
1507;SDS011;745;48.586;10.032;2023-05-07T05:49:17;5.30;;;4.80;;
1507;SDS011;745;48.586;10.032;2023-05-07T05:53:48;5.00;;;4.37;;
1507;SDS011;745;48.586;10.032;2023-05-07T05:58:19;5.27;;;4.77;;
1507;SDS011;745;48.586;10.032;2023-05-07T06:02:49;5.80;;;5.20;;
1507;SDS011;745;48.586;10.032;2023-05-07T06:07:19;5.50;;;5.00;;
1507;SDS011;745;48.586;10.032;2023-05-07T06:11:51;5.80;;;5.23;;
1507;SDS011;745;48.586;10.032;2023-05-07T06:16:21;6.20;;;5.50;;
1507;SDS011;745;48.586;10.032;2023-05-07T06:20:52;4.60;;;4.20;;
1507;SDS011;745;48.586;10.032;2023-05-07T06:25:23;5.07;;;4.57;;
1507;SDS011;745;48.586;10.032;2023-05-07T06:29:53;8.27;;;5.67;;
1507;SDS011;745;48.586;10.032;2023-05-07T06:34:24;4.53;;;4.13;;
1507;SDS011;745;48.586;10.032;2023-05-07T06:38:55;5.43;;;5.03;;
1507;SDS011;745;48.586;10.032;2023-05-07T06:43:25;7.13;;;5.40;;
1507;SDS011;745;48.586;10.032;2023-05-07T06:47:55;6.20;;;5.60;;
1507;SDS011;745;48.586;10.032;2023-05-07T06:52:26;5.00;;;4.60;;
1507;SDS011;745;48.586;10.032;2023-05-07T06:56:56;6.50;;;5.90;;
1507;SDS011;745;48.586;10.032;2023-05-07T07:01:27;5.97;;;5.47;;
1507;SDS011;745;48.586;10.032;2023-05-07T07:05:58;7.93;;;7.23;;
1507;SDS011;745;48.586;10.032;2023-05-07T07:10:28;6.47;;;5.80;;
1507;SDS011;745;48.586;10.032;2023-05-07T07:14:58;6.27;;;5.67;;
1507;SDS011;745;48.586;10.032;2023-05-07T07:19:29;5.70;;;5.03;;
1507;SDS011;745;48.586;10.032;2023-05-07T07:23:59;6.13;;;5.47;;
1507;SDS011;745;48.586;10.032;2023-05-07T07:28:30;6.33;;;5.63;;
1507;SDS011;745;48.586;10.032;2023-05-07T07:33:00;5.80;;;5.20;;
1507;SDS011;745;48.586;10.032;2023-05-07T07:37:33;5.03;;;4.53;;
1507;SDS011;745;48.586;10.032;2023-05-07T07:42:04;6.40;;;5.33;;
1507;SDS011;745;48.586;10.032;2023-05-07T07:46:34;5.90;;;5.03;;
1507;SDS011;745;48.586;10.032;2023-05-07T07:51:04;5.80;;;5.30;;
1507;SDS011;745;48.586;10.032;2023-05-07T07:55:38;5.47;;;4.97;;
1507;SDS011;745;48.586;10.032;2023-05-07T08:00:10;5.60;;;4.83;;
1507;SDS011;745;48.586;10.032;2023-05-07T08:04:41;5.13;;;4.70;;
1507;SDS011;745;48.586;10.032;2023-05-07T08:09:13;4.60;;;4.20;;
1507;SDS011;745;48.586;10.032;2023-05-07T08:13:43;5.13;;;4.50;;
1507;SDS011;745;48.586;10.032;2023-05-07T08:18:15;5.50;;;4.93;;
1507;SDS011;745;48.586;10.032;2023-05-07T08:22:45;5.03;;;4.63;;
1507;SDS011;745;48.586;10.032;2023-05-07T08:27:16;6.10;;;5.50;;
1507;SDS011;745;48.586;10.032;2023-05-07T08:31:46;5.83;;;4.33;;
1507;SDS011;745;48.586;10.032;2023-05-07T08:36:16;4.17;;;3.87;;
1507;SDS011;745;48.586;10.032;2023-05-07T08:40:49;5.07;;;4.60;;
1507;SDS011;745;48.586;10.032;2023-05-07T08:45:19;6.33;;;4.60;;
1507;SDS011;745;48.586;10.032;2023-05-07T08:49:50;5.90;;;5.30;;
1507;SDS011;745;48.586;10.032;2023-05-07T08:54:21;5.50;;;4.63;;
1507;SDS011;745;48.586;10.032;2023-05-07T08:58:52;4.40;;;4.10;;
1507;SDS011;745;48.586;10.032;2023-05-07T09:03:27;5.00;;;4.60;;
1507;SDS011;745;48.586;10.032;2023-05-07T09:08:01;4.80;;;4.30;;
1507;SDS011;745;48.586;10.032;2023-05-07T09:12:33;4.90;;;4.47;;
1507;SDS011;745;48.586;10.032;2023-05-07T09:17:05;7.53;;;4.47;;
1507;SDS011;745;48.586;10.032;2023-05-07T09:21:35;6.17;;;5.57;;
1507;SDS011;745;48.586;10.032;2023-05-07T09:26:06;4.97;;;4.33;;
1507;SDS011;745;48.586;10.032;2023-05-07T09:30:41;5.27;;;4.60;;
1507;SDS011;745;48.586;10.032;2023-05-07T09:35:15;4.50;;;3.90;;
1507;SDS011;745;48.586;10.032;2023-05-07T09:39:47;6.43;;;4.57;;
1507;SDS011;745;48.586;10.032;2023-05-07T09:44:19;7.50;;;6.90;;
1507;SDS011;745;48.586;10.032;2023-05-07T09:48:50;7.60;;;5.40;;
1507;SDS011;745;48.586;10.032;2023-05-07T09:53:22;5.20;;;4.80;;
1507;SDS011;745;48.586;10.032;2023-05-07T09:57:53;5.57;;;5.07;;
1507;SDS011;745;48.586;10.032;2023-05-07T10:02:25;4.80;;;4.40;;
1507;SDS011;745;48.586;10.032;2023-05-07T10:06:59;4.97;;;4.57;;
1507;SDS011;745;48.586;10.032;2023-05-07T10:11:29;6.03;;;5.53;;
1507;SDS011;745;48.586;10.032;2023-05-07T10:16:00;6.67;;;6.07;;
1507;SDS011;745;48.586;10.032;2023-05-07T10:20:30;6.83;;;6.30;;
1507;SDS011;745;48.586;10.032;2023-05-07T10:25:02;6.53;;;5.97;;
1507;SDS011;745;48.586;10.032;2023-05-07T10:29:33;6.17;;;5.60;;
1507;SDS011;745;48.586;10.032;2023-05-07T10:34:09;5.10;;;4.60;;
1507;SDS011;745;48.586;10.032;2023-05-07T10:38:41;5.13;;;4.63;;
1507;SDS011;745;48.586;10.032;2023-05-07T10:43:11;4.43;;;4.03;;
1507;SDS011;745;48.586;10.032;2023-05-07T10:52:44;4.50;;;4.00;;
1507;SDS011;745;48.586;10.032;2023-05-07T11:02:07;3.47;;;3.17;;
1507;SDS011;745;48.586;10.032;2023-05-07T11:06:40;2.97;;;2.77;;
1507;SDS011;745;48.586;10.032;2023-05-07T11:11:10;3.57;;;3.27;;
1507;SDS011;745;48.586;10.032;2023-05-07T11:15:44;3.37;;;3.07;;
1507;SDS011;745;48.586;10.032;2023-05-07T11:20:15;3.50;;;3.20;;
1507;SDS011;745;48.586;10.032;2023-05-07T11:24:46;3.60;;;3.30;;
1507;SDS011;745;48.586;10.032;2023-05-07T11:29:17;5.00;;;4.10;;
1507;SDS011;745;48.586;10.032;2023-05-07T11:33:49;4.93;;;4.43;;
1507;SDS011;745;48.586;10.032;2023-05-07T11:38:20;6.47;;;4.33;;
1507;SDS011;745;48.586;10.032;2023-05-07T11:42:51;5.47;;;4.90;;
1507;SDS011;745;48.586;10.032;2023-05-07T11:47:21;5.67;;;3.73;;
1507;SDS011;745;48.586;10.032;2023-05-07T11:51:52;6.33;;;5.73;;
1507;SDS011;745;48.586;10.032;2023-05-07T11:56:22;5.57;;;5.07;;
1507;SDS011;745;48.586;10.032;2023-05-07T12:00:53;5.30;;;4.63;;
1507;SDS011;745;48.586;10.032;2023-05-07T12:05:24;5.10;;;4.07;;
1507;SDS011;745;48.586;10.032;2023-05-07T12:09:54;5.17;;;4.67;;
1507;SDS011;745;48.586;10.032;2023-05-07T12:14:27;6.73;;;5.47;;
1507;SDS011;745;48.586;10.032;2023-05-07T12:18:58;4.70;;;4.30;;
1507;SDS011;745;48.586;10.032;2023-05-07T12:23:29;4.93;;;4.53;;
1507;SDS011;745;48.586;10.032;2023-05-07T12:28:00;4.17;;;3.77;;
1507;SDS011;745;48.586;10.032;2023-05-07T12:32:31;4.63;;;4.23;;
1507;SDS011;745;48.586;10.032;2023-05-07T12:37:06;5.37;;;4.87;;
1507;SDS011;745;48.586;10.032;2023-05-07T12:41:52;4.43;;;4.03;;
1507;SDS011;745;48.586;10.032;2023-05-07T12:46:26;4.40;;;3.70;;
1507;SDS011;745;48.586;10.032;2023-05-07T12:50:57;4.37;;;3.47;;
1507;SDS011;745;48.586;10.032;2023-05-07T12:55:29;3.90;;;3.60;;
1507;SDS011;745;48.586;10.032;2023-05-07T13:00:00;4.30;;;3.90;;
1507;SDS011;745;48.586;10.032;2023-05-07T13:04:30;3.30;;;3.10;;
1507;SDS011;745;48.586;10.032;2023-05-07T13:09:01;4.90;;;3.90;;
1507;SDS011;745;48.586;10.032;2023-05-07T13:13:31;3.20;;;2.90;;
1507;SDS011;745;48.586;10.032;2023-05-07T13:18:03;4.23;;;3.83;;
1507;SDS011;745;48.586;10.032;2023-05-07T13:22:33;6.40;;;3.90;;
1507;SDS011;745;48.586;10.032;2023-05-07T13:27:04;4.20;;;3.80;;
1507;SDS011;745;48.586;10.032;2023-05-07T13:31:34;3.30;;;3.00;;
1507;SDS011;745;48.586;10.032;2023-05-07T13:36:05;3.20;;;2.90;;
1507;SDS011;745;48.586;10.032;2023-05-07T13:40:36;4.13;;;3.73;;
1507;SDS011;745;48.586;10.032;2023-05-07T13:45:07;3.60;;;3.30;;
1507;SDS011;745;48.586;10.032;2023-05-07T13:49:38;3.90;;;3.17;;
1507;SDS011;745;48.586;10.032;2023-05-07T13:54:10;3.60;;;3.30;;
1507;SDS011;745;48.586;10.032;2023-05-07T13:58:40;4.00;;;3.60;;
1507;SDS011;745;48.586;10.032;2023-05-07T14:03:29;3.50;;;3.20;;
1507;SDS011;745;48.586;10.032;2023-05-07T14:08:02;3.57;;;3.27;;
1507;SDS011;745;48.586;10.032;2023-05-07T14:12:35;4.70;;;3.20;;
1507;SDS011;745;48.586;10.032;2023-05-07T14:17:05;3.57;;;3.30;;
1507;SDS011;745;48.586;10.032;2023-05-07T14:21:36;3.50;;;3.10;;
1507;SDS011;745;48.586;10.032;2023-05-07T14:26:06;3.33;;;3.10;;
1507;SDS011;745;48.586;10.032;2023-05-07T14:30:36;3.53;;;3.17;;
1507;SDS011;745;48.586;10.032;2023-05-07T14:35:07;3.10;;;2.87;;
1507;SDS011;745;48.586;10.032;2023-05-07T14:39:38;4.33;;;2.50;;
1507;SDS011;745;48.586;10.032;2023-05-07T14:44:08;3.67;;;3.37;;
1507;SDS011;745;48.586;10.032;2023-05-07T14:48:39;4.43;;;3.73;;
1507;SDS011;745;48.586;10.032;2023-05-07T14:53:09;4.30;;;3.33;;
1507;SDS011;745;48.586;10.032;2023-05-07T14:57:40;4.50;;;3.17;;
1507;SDS011;745;48.586;10.032;2023-05-07T15:02:11;3.20;;;2.90;;
1507;SDS011;745;48.586;10.032;2023-05-07T15:06:41;3.73;;;2.60;;
1507;SDS011;745;48.586;10.032;2023-05-07T15:11:12;6.83;;;3.00;;
1507;SDS011;745;48.586;10.032;2023-05-07T15:15:42;3.70;;;3.40;;
1507;SDS011;745;48.586;10.032;2023-05-07T15:20:15;3.60;;;3.30;;
1507;SDS011;745;48.586;10.032;2023-05-07T15:24:50;4.03;;;3.73;;
1507;SDS011;745;48.586;10.032;2023-05-07T15:29:20;3.27;;;2.97;;
1507;SDS011;745;48.586;10.032;2023-05-07T15:33:53;3.77;;;3.00;;
1507;SDS011;745;48.586;10.032;2023-05-07T15:38:25;3.57;;;3.23;;
1507;SDS011;745;48.586;10.032;2023-05-07T15:42:57;4.30;;;3.10;;
1507;SDS011;745;48.586;10.032;2023-05-07T15:47:27;3.13;;;2.57;;
1507;SDS011;745;48.586;10.032;2023-05-07T15:51:59;4.07;;;2.33;;
1507;SDS011;745;48.586;10.032;2023-05-07T15:56:29;2.67;;;2.47;;
1507;SDS011;745;48.586;10.032;2023-05-07T16:01:02;2.70;;;2.50;;
1507;SDS011;745;48.586;10.032;2023-05-07T16:05:33;2.93;;;2.20;;
1507;SDS011;745;48.586;10.032;2023-05-07T16:10:04;2.77;;;2.40;;
1507;SDS011;745;48.586;10.032;2023-05-07T16:14:35;2.40;;;2.20;;
1507;SDS011;745;48.586;10.032;2023-05-07T16:19:05;2.70;;;2.50;;
1507;SDS011;745;48.586;10.032;2023-05-07T16:23:36;2.83;;;2.53;;
1507;SDS011;745;48.586;10.032;2023-05-07T16:28:07;5.80;;;2.63;;
1507;SDS011;745;48.586;10.032;2023-05-07T16:32:37;2.87;;;2.37;;
1507;SDS011;745;48.586;10.032;2023-05-07T16:37:08;3.10;;;2.80;;
1507;SDS011;745;48.586;10.032;2023-05-07T16:41:38;4.97;;;3.10;;
1507;SDS011;745;48.586;10.032;2023-05-07T16:46:08;4.17;;;3.87;;
1507;SDS011;745;48.586;10.032;2023-05-07T16:50:39;5.10;;;4.60;;
1507;SDS011;745;48.586;10.032;2023-05-07T16:55:10;5.87;;;5.30;;
1507;SDS011;745;48.586;10.032;2023-05-07T16:59:40;6.50;;;5.50;;
1507;SDS011;745;48.586;10.032;2023-05-07T17:04:11;8.20;;;7.33;;
1507;SDS011;745;48.586;10.032;2023-05-07T17:08:43;10.07;;;8.30;;
1507;SDS011;745;48.586;10.032;2023-05-07T17:13:13;8.87;;;7.77;;
1507;SDS011;745;48.586;10.032;2023-05-07T17:17:44;9.67;;;8.67;;
1507;SDS011;745;48.586;10.032;2023-05-07T17:22:14;8.33;;;7.50;;
1507;SDS011;745;48.586;10.032;2023-05-07T17:26:46;6.80;;;6.20;;
1507;SDS011;745;48.586;10.032;2023-05-07T17:31:17;12.20;;;9.63;;
1507;SDS011;745;48.586;10.032;2023-05-07T17:35:47;7.03;;;6.30;;
1507;SDS011;745;48.586;10.032;2023-05-07T17:40:19;6.63;;;6.03;;
1507;SDS011;745;48.586;10.032;2023-05-07T17:44:51;5.20;;;4.80;;
1507;SDS011;745;48.586;10.032;2023-05-07T17:49:21;4.60;;;4.20;;
1507;SDS011;745;48.586;10.032;2023-05-07T17:53:52;3.73;;;3.43;;
1507;SDS011;745;48.586;10.032;2023-05-07T17:58:22;4.63;;;4.23;;
1507;SDS011;745;48.586;10.032;2023-05-07T18:02:55;5.53;;;4.63;;
1507;SDS011;745;48.586;10.032;2023-05-07T18:07:25;6.93;;;6.23;;
1507;SDS011;745;48.586;10.032;2023-05-07T18:11:56;6.00;;;4.90;;
1507;SDS011;745;48.586;10.032;2023-05-07T18:16:26;5.63;;;5.13;;
1507;SDS011;745;48.586;10.032;2023-05-07T18:20:56;7.30;;;6.30;;
1507;SDS011;745;48.586;10.032;2023-05-07T18:25:27;7.60;;;6.90;;
1507;SDS011;745;48.586;10.032;2023-05-07T18:29:57;6.33;;;5.83;;
1507;SDS011;745;48.586;10.032;2023-05-07T18:34:28;4.40;;;4.00;;
1507;SDS011;745;48.586;10.032;2023-05-07T18:38:58;3.30;;;3.07;;
1507;SDS011;745;48.586;10.032;2023-05-07T18:43:30;3.30;;;3.00;;
1507;SDS011;745;48.586;10.032;2023-05-07T18:48:01;3.07;;;2.77;;
1507;SDS011;745;48.586;10.032;2023-05-07T18:52:31;3.33;;;3.03;;
1507;SDS011;745;48.586;10.032;2023-05-07T18:57:02;3.70;;;3.40;;
1507;SDS011;745;48.586;10.032;2023-05-07T19:01:32;2.90;;;2.70;;
1507;SDS011;745;48.586;10.032;2023-05-07T19:06:03;2.80;;;2.30;;
1507;SDS011;745;48.586;10.032;2023-05-07T19:10:34;5.73;;;5.20;;
1507;SDS011;745;48.586;10.032;2023-05-07T19:15:05;40.17;;;24.67;;
1507;SDS011;745;48.586;10.032;2023-05-07T19:19:36;19.87;;;13.63;;
1507;SDS011;745;48.586;10.032;2023-05-07T19:24:07;10.13;;;8.20;;
1507;SDS011;745;48.586;10.032;2023-05-07T19:28:37;4.50;;;4.10;;
1507;SDS011;745;48.586;10.032;2023-05-07T19:33:08;3.57;;;2.80;;
1507;SDS011;745;48.586;10.032;2023-05-07T19:37:38;3.30;;;3.10;;
1507;SDS011;745;48.586;10.032;2023-05-07T19:42:09;2.47;;;2.27;;
1507;SDS011;745;48.586;10.032;2023-05-07T19:46:39;2.17;;;2.03;;
1507;SDS011;745;48.586;10.032;2023-05-07T19:51:13;2.00;;;1.90;;
1507;SDS011;745;48.586;10.032;2023-05-07T19:55:43;11.63;;;2.77;;
1507;SDS011;745;48.586;10.032;2023-05-07T20:00:14;3.10;;;2.63;;
1507;SDS011;745;48.586;10.032;2023-05-07T20:04:45;2.33;;;2.13;;
1507;SDS011;745;48.586;10.032;2023-05-07T20:09:15;3.00;;;2.40;;
1507;SDS011;745;48.586;10.032;2023-05-07T20:13:45;2.10;;;2.00;;
1507;SDS011;745;48.586;10.032;2023-05-07T20:18:16;2.50;;;2.23;;
1507;SDS011;745;48.586;10.032;2023-05-07T20:22:46;2.07;;;1.97;;
1507;SDS011;745;48.586;10.032;2023-05-07T20:27:16;4.43;;;2.07;;
1507;SDS011;745;48.586;10.032;2023-05-07T20:31:51;2.10;;;2.00;;
1507;SDS011;745;48.586;10.032;2023-05-07T20:36:21;2.40;;;2.20;;
1507;SDS011;745;48.586;10.032;2023-05-07T20:40:54;2.20;;;2.00;;
1507;SDS011;745;48.586;10.032;2023-05-07T20:45:24;2.63;;;2.43;;
1507;SDS011;745;48.586;10.032;2023-05-07T20:49:54;2.37;;;2.17;;
1507;SDS011;745;48.586;10.032;2023-05-07T20:54:25;2.30;;;2.10;;
1507;SDS011;745;48.586;10.032;2023-05-07T20:58:57;2.63;;;2.43;;
1507;SDS011;745;48.586;10.032;2023-05-07T21:03:27;2.77;;;2.57;;
1507;SDS011;745;48.586;10.032;2023-05-07T21:07:57;2.43;;;2.23;;
1507;SDS011;745;48.586;10.032;2023-05-07T21:12:28;2.33;;;2.20;;
1507;SDS011;745;48.586;10.032;2023-05-07T21:16:58;3.03;;;2.73;;
1507;SDS011;745;48.586;10.032;2023-05-07T21:21:29;3.43;;;3.13;;
1507;SDS011;745;48.586;10.032;2023-05-07T21:26:00;3.00;;;2.80;;
1507;SDS011;745;48.586;10.032;2023-05-07T21:30:30;3.33;;;2.30;;
1507;SDS011;745;48.586;10.032;2023-05-07T21:35:01;2.70;;;2.50;;
1507;SDS011;745;48.586;10.032;2023-05-07T21:39:32;3.10;;;2.80;;
1507;SDS011;745;48.586;10.032;2023-05-07T21:44:03;3.10;;;2.90;;
1507;SDS011;745;48.586;10.032;2023-05-07T21:48:33;3.23;;;3.03;;
1507;SDS011;745;48.586;10.032;2023-05-07T21:53:04;3.07;;;2.77;;
1507;SDS011;745;48.586;10.032;2023-05-07T21:57:34;3.10;;;2.80;;
1507;SDS011;745;48.586;10.032;2023-05-07T22:02:06;3.13;;;2.83;;
1507;SDS011;745;48.586;10.032;2023-05-07T22:06:37;2.80;;;2.60;;
1507;SDS011;745;48.586;10.032;2023-05-07T22:11:07;3.00;;;2.80;;
1507;SDS011;745;48.586;10.032;2023-05-07T22:15:37;3.33;;;3.03;;
1507;SDS011;745;48.586;10.032;2023-05-07T22:20:09;3.20;;;3.00;;
1507;SDS011;745;48.586;10.032;2023-05-07T22:24:40;3.90;;;2.93;;
1507;SDS011;745;48.586;10.032;2023-05-07T22:29:10;4.77;;;2.87;;
1507;SDS011;745;48.586;10.032;2023-05-07T22:33:40;3.70;;;3.40;;
1507;SDS011;745;48.586;10.032;2023-05-07T22:38:11;2.90;;;2.70;;
1507;SDS011;745;48.586;10.032;2023-05-07T22:42:41;2.70;;;2.50;;
1507;SDS011;745;48.586;10.032;2023-05-07T22:47:11;4.93;;;4.50;;
1507;SDS011;745;48.586;10.032;2023-05-07T22:51:42;4.57;;;4.17;;
1507;SDS011;745;48.586;10.032;2023-05-07T22:56:12;3.13;;;2.93;;
1507;SDS011;745;48.586;10.032;2023-05-07T23:00:42;4.40;;;4.00;;
1507;SDS011;745;48.586;10.032;2023-05-07T23:05:13;4.23;;;3.37;;
1507;SDS011;745;48.586;10.032;2023-05-07T23:09:43;3.50;;;3.20;;
1507;SDS011;745;48.586;10.032;2023-05-07T23:14:14;4.43;;;3.83;;
1507;SDS011;745;48.586;10.032;2023-05-07T23:18:44;5.00;;;2.90;;
1507;SDS011;745;48.586;10.032;2023-05-07T23:23:15;3.53;;;3.23;;
1507;SDS011;745;48.586;10.032;2023-05-07T23:27:45;2.90;;;2.67;;
1507;SDS011;745;48.586;10.032;2023-05-07T23:32:18;3.13;;;2.87;;
1507;SDS011;745;48.586;10.032;2023-05-07T23:36:49;3.07;;;2.80;;
1507;SDS011;745;48.586;10.032;2023-05-07T23:41:20;2.70;;;2.50;;
1507;SDS011;745;48.586;10.032;2023-05-07T23:45:50;2.43;;;2.23;;
1507;SDS011;745;48.586;10.032;2023-05-07T23:50:20;2.63;;;2.43;;
1507;SDS011;745;48.586;10.032;2023-05-07T23:54:51;2.60;;;2.40;;
1507;SDS011;745;48.586;10.032;2023-05-07T23:59:21;2.90;;;2.70;;
